Whiting Field Naval Air Station North Airport
KNSE : now visible

Airfield :











YOU CAN JOIN US ON...

 
LOGIN :

Register | Disclaimer

   EN    FR    IT 

 









Legend :    VFR   Marginal VFR   IFR   Intensive IFR   Very Intensive IFR
Visi :
Ceiling :
>= 8 km
>= 3000ft
5 to 8 km
1000 to 3000 ft
1500m to 5 km
500 to 1000 ft
800 to 1500m
200 to 500 ft
< 800m
< 200 ft
Symbols :   Thunderstorms  Fog  Heavy snow  Heavy precipitations  Wind > 20 kt






- Airport Elevation : 199 ft


KNSE - Whiting Field Naval Air Station North

CURRENT METAR :
  • 040256Z 00000KT 10SM FEW120 SCT150 BKN250 16/12 A2999 RMK AO2 SLP143 T01610117 51009 $

EXPIRED METARs :
  • 040156Z 00000KT 10SM FEW120 BKN150 BKN250 18/11 A2999 RMK AO2 SLP142 T01780111 $
  • 040056Z 00000KT 10SM SCT120 BKN150 BKN250 18/11 A2997 RMK AO2 SLP136 T01780106 $

TAF COR TAF KNSE
Valid from the 03 at 23:00 until the 04 at 23:00 UTC


0323/0423 VRB05KT 9999 FEW120 SCT150 BKN250 QNH2996INS
FM040400 VRB04KT 9999 SCT120 BKN150 BKN250 QNH2997INS
FM041600 VRB05KT 9999 FEW100 SCT150 BKN250 QNH2995INS
FM041800 VRB06KT 9999 SCT060 BKN150 BKN250 QNH2990INS LAST NO AMDS AFT 0401 NEXT 0607 AUTOMATED SENSOR METWATCH 0404 TIL 0611 T14/0411Z T27/0419Z COR 2301 FN20031



MET'MAP, your aeronautical weather chart ! - Copyright ORBIFLY December 2007 - Disclaimer

ORBIFLY MET'MAP TEAM :

Programming & Development : Alexandra Zaïnal
Concept & original design : Baudouin d'Aumeries
Assistance for programming : Marc-Olivier Méhu
Technical & hardware support : Manuel Goepfert

Contact : metmap@orbifly.com




SOURCES & CREDITS :

   NOAA       Earth
Advisory